createdAt,value
2022-08-14T00:00:22.745Z,17.90
2022-08-14T00:04:34.520Z,17.80
2022-08-14T00:08:14.406Z,17.80
2022-08-14T00:11:58.432Z,17.70
2022-08-14T00:15:48.038Z,17.60
2022-08-14T00:19:30.791Z,17.50
2022-08-14T00:23:17.772Z,17.40
2022-08-14T00:27:02.860Z,17.30
2022-08-14T00:30:45.600Z,17.30
2022-08-14T00:34:37.188Z,17.30
2022-08-14T00:38:28.552Z,17.30
2022-08-14T00:42:52.452Z,17.20
2022-08-14T00:46:32.131Z,17.20
2022-08-14T00:50:18.896Z,17.10
2022-08-14T00:54:05.339Z,17.00
2022-08-14T00:58:18.930Z,16.90
2022-08-14T01:02:11.690Z,16.90
2022-08-14T01:05:54.943Z,16.90
2022-08-14T01:09:40.621Z,16.80
2022-08-14T01:13:42.674Z,16.80
2022-08-14T01:17:49.869Z,16.70
2022-08-14T01:21:38.769Z,16.60
2022-08-14T01:25:29.374Z,16.50
2022-08-14T01:29:25.958Z,16.40
2022-08-14T01:33:14.837Z,16.40
2022-08-14T01:37:02.004Z,16.40
2022-08-14T01:40:47.277Z,16.40
2022-08-14T01:44:33.877Z,16.40
2022-08-14T01:48:20.781Z,16.40
2022-08-14T01:52:09.027Z,16.40
2022-08-14T01:56:12.048Z,16.40
2022-08-14T02:00:03.175Z,16.30
2022-08-14T02:03:49.914Z,16.30
2022-08-14T02:07:55.767Z,16.20
2022-08-14T02:11:38.956Z,16.20
2022-08-14T02:15:21.965Z,16.20
2022-08-14T02:19:07.595Z,16.10
2022-08-14T02:22:55.055Z,16.10
2022-08-14T02:28:19.116Z,16.00
2022-08-14T02:30:42.584Z,16.00
2022-08-14T02:34:29.246Z,15.90
2022-08-14T02:38:29.929Z,15.80
2022-08-14T02:42:23.626Z,15.70
2022-08-14T02:46:27.018Z,15.70
2022-08-14T02:50:16.892Z,15.60
2022-08-14T02:54:03.536Z,15.60
2022-08-14T02:57:57.812Z,15.60
2022-08-14T03:01:43.813Z,15.70
2022-08-14T03:05:36.968Z,16.00
2022-08-14T03:09:25.326Z,16.10
2022-08-14T03:13:25.091Z,16.10
2022-08-14T03:17:11.479Z,16.20
2022-08-14T03:20:56.146Z,16.20
2022-08-14T03:24:40.766Z,16.20
2022-08-14T03:28:29.735Z,16.30
2022-08-14T03:32:16.641Z,16.20
2022-08-14T03:36:07.700Z,16.30
2022-08-14T03:40:05.168Z,16.30
2022-08-14T03:43:57.818Z,16.30
2022-08-14T03:47:50.441Z,16.30
2022-08-14T03:51:40.243Z,16.30
2022-08-14T03:55:24.483Z,16.30
2022-08-14T03:59:08.189Z,16.20
2022-08-14T04:03:00.315Z,16.20
2022-08-14T04:06:47.711Z,16.20
2022-08-14T04:10:33.652Z,16.30
2022-08-14T04:14:16.618Z,16.30
2022-08-14T04:18:03.545Z,16.30
2022-08-14T04:22:02.415Z,16.20
2022-08-14T04:25:48.337Z,16.30
2022-08-14T04:29:32.604Z,16.40
2022-08-14T04:33:20.691Z,16.40
2022-08-14T04:37:24.655Z,16.50
2022-08-14T04:41:30.215Z,16.60
2022-08-14T04:45:15.088Z,16.80
2022-08-14T04:49:00.140Z,16.90
2022-08-14T04:52:44.037Z,17.10
2022-08-14T04:56:31.228Z,17.30
2022-08-14T05:00:18.259Z,17.50
2022-08-14T05:04:01.497Z,17.70
2022-08-14T05:07:54.076Z,17.80
2022-08-14T05:11:38.465Z,18.00
2022-08-14T05:15:22.276Z,18.10
2022-08-14T05:19:18.036Z,18.10
2022-08-14T05:23:11.182Z,18.20
2022-08-14T05:26:55.398Z,18.20
2022-08-14T05:30:38.168Z,18.30
2022-08-14T05:34:20.872Z,18.40
2022-08-14T05:38:10.774Z,18.50
2022-08-14T05:41:54.885Z,18.60
2022-08-14T05:45:38.745Z,18.80
2022-08-14T05:49:22.247Z,19.00
2022-08-14T05:53:09.440Z,19.10
2022-08-14T05:56:52.049Z,19.30
2022-08-14T06:00:39.644Z,19.40
2022-08-14T06:04:22.789Z,19.60
2022-08-14T06:08:08.761Z,19.80
2022-08-14T06:12:10.732Z,20.00
2022-08-14T06:15:55.745Z,20.20
2022-08-14T06:19:41.082Z,20.40
2022-08-14T06:23:23.821Z,20.60
2022-08-14T06:27:09.999Z,20.80
2022-08-14T06:30:53.376Z,21.00
2022-08-14T06:35:09.214Z,21.10
2022-08-14T06:38:41.595Z,21.10
2022-08-14T06:42:32.534Z,21.10
2022-08-14T06:46:23.047Z,21.20
2022-08-14T06:50:15.157Z,21.40
2022-08-14T06:53:58.503Z,21.30
2022-08-14T06:57:43.359Z,21.40
2022-08-14T07:01:43.281Z,21.50
2022-08-14T07:05:55.785Z,21.50
2022-08-14T07:09:50.447Z,21.60
2022-08-14T07:13:34.081Z,21.70
2022-08-14T07:17:16.689Z,21.80
2022-08-14T07:21:02.392Z,22.00
2022-08-14T07:24:45.307Z,22.10
2022-08-14T07:28:34.671Z,22.20
2022-08-14T07:32:22.137Z,22.30
2022-08-14T07:36:27.698Z,22.40
2022-08-14T07:40:14.207Z,22.50
2022-08-14T07:44:28.708Z,22.70
2022-08-14T07:48:07.830Z,22.70
2022-08-14T07:51:59.925Z,22.90
2022-08-14T07:55:43.419Z,23.00
2022-08-14T07:59:40.919Z,23.00
2022-08-14T08:03:28.127Z,23.10
2022-08-14T08:07:14.564Z,23.30
2022-08-14T08:11:02.930Z,23.30
2022-08-14T08:14:56.957Z,23.50
2022-08-14T08:18:44.847Z,23.70
2022-08-14T08:22:32.461Z,23.80
2022-08-14T08:26:15.475Z,23.80
2022-08-14T08:30:10.285Z,23.80
2022-08-14T08:33:54.413Z,24.00
2022-08-14T08:37:40.303Z,24.30
2022-08-14T08:41:27.977Z,24.60
2022-08-14T08:45:17.451Z,24.70
2022-08-14T08:52:53.125Z,24.70
2022-08-14T08:56:39.653Z,24.80
2022-08-14T09:00:24.685Z,24.90
2022-08-14T09:04:17.272Z,25.10
2022-08-14T09:08:30.763Z,25.30
2022-08-14T09:12:16.078Z,25.60
2022-08-14T09:15:58.794Z,25.70
2022-08-14T09:19:41.945Z,25.80
2022-08-14T09:23:27.475Z,26.00
2022-08-14T09:27:22.498Z,26.10
2022-08-14T09:31:17.719Z,26.10
2022-08-14T09:35:10.583Z,26.20
2022-08-14T09:39:02.490Z,26.30
2022-08-14T09:42:53.790Z,26.40
2022-08-14T09:46:36.700Z,26.50
2022-08-14T09:50:26.218Z,26.50
2022-08-14T09:54:23.018Z,26.10
2022-08-14T09:58:20.060Z,26.20
2022-08-14T10:02:07.177Z,26.30
2022-08-14T10:05:52.417Z,26.60
2022-08-14T10:10:00.146Z,26.80
2022-08-14T10:13:53.181Z,26.80
2022-08-14T10:17:38.818Z,26.90
2022-08-14T10:21:22.652Z,27.00
2022-08-14T10:25:15.402Z,27.20
2022-08-14T10:29:19.924Z,27.20
2022-08-14T10:33:07.120Z,27.10
2022-08-14T10:37:02.190Z,27.10
2022-08-14T10:40:52.204Z,27.30
2022-08-14T10:44:46.107Z,27.30
2022-08-14T10:48:37.215Z,27.40
2022-08-14T10:52:26.183Z,27.50
2022-08-14T10:56:22.009Z,27.60
2022-08-14T11:00:20.692Z,27.60
2022-08-14T11:04:03.765Z,27.70
2022-08-14T11:07:59.702Z,27.30
2022-08-14T11:11:45.254Z,27.40
2022-08-14T11:15:29.955Z,27.70
2022-08-14T11:19:15.891Z,27.70
2022-08-14T11:23:01.461Z,27.20
2022-08-14T11:26:47.218Z,27.40
2022-08-14T11:30:49.039Z,27.90
2022-08-14T11:34:38.129Z,27.90
2022-08-14T11:38:22.312Z,28.20
2022-08-14T11:43:07.895Z,28.30
2022-08-14T11:46:17.897Z,28.40
2022-08-14T11:50:25.043Z,28.20
2022-08-14T11:54:19.417Z,28.20
2022-08-14T11:58:07.847Z,28.30
2022-08-14T12:01:51.046Z,28.40
2022-08-14T12:05:36.844Z,28.50
2022-08-14T12:09:32.720Z,28.50
2022-08-14T12:13:19.153Z,28.50
2022-08-14T12:17:12.727Z,28.40
2022-08-14T12:20:59.999Z,28.80
2022-08-14T12:24:45.118Z,28.60
2022-08-14T12:28:33.700Z,28.70
2022-08-14T12:32:44.727Z,29.10
2022-08-14T12:36:30.592Z,29.00
2022-08-14T12:40:24.833Z,29.30
2022-08-14T12:44:08.949Z,29.40
2022-08-14T12:48:01.757Z,29.70
2022-08-14T12:52:12.212Z,29.70
2022-08-14T12:56:21.463Z,29.80
2022-08-14T13:00:22.793Z,29.90
2022-08-14T13:04:09.994Z,29.90
2022-08-14T13:07:53.166Z,29.50
2022-08-14T13:11:41.325Z,29.80
2022-08-14T13:15:28.839Z,30.00
2022-08-14T13:19:15.925Z,29.70
2022-08-14T13:22:59.582Z,29.50
2022-08-14T13:26:46.450Z,29.60
2022-08-14T13:30:30.793Z,29.80
2022-08-14T13:34:14.355Z,30.00
2022-08-14T13:37:57.355Z,29.70
2022-08-14T13:41:40.540Z,29.80
2022-08-14T13:45:24.556Z,29.80
2022-08-14T13:49:29.106Z,30.10
2022-08-14T13:53:15.233Z,30.50
2022-08-14T13:57:03.548Z,30.60
2022-08-14T14:00:53.028Z,30.50
2022-08-14T14:04:41.135Z,30.30
2022-08-14T14:08:43.330Z,29.80
2022-08-14T14:12:37.483Z,30.30
2022-08-14T14:16:31.072Z,30.20
2022-08-14T14:20:34.426Z,30.20
2022-08-14T14:24:18.533Z,30.20
2022-08-14T14:28:04.473Z,30.30
2022-08-14T14:31:49.510Z,30.40
2022-08-14T14:35:38.522Z,30.50
2022-08-14T14:39:27.439Z,30.30
2022-08-14T14:43:13.268Z,30.20
2022-08-14T14:46:58.246Z,30.70
2022-08-14T14:50:43.211Z,30.90
2022-08-14T14:54:32.193Z,30.90
2022-08-14T14:58:23.240Z,31.20
2022-08-14T15:02:08.201Z,31.20
2022-08-14T15:05:53.372Z,31.30
2022-08-14T15:09:36.540Z,31.00
2022-08-14T15:13:19.195Z,31.00
2022-08-14T15:17:06.480Z,31.20
2022-08-14T15:20:49.473Z,31.10
2022-08-14T15:24:33.385Z,31.20
2022-08-14T15:28:21.359Z,31.40
2022-08-14T15:32:09.263Z,31.10
2022-08-14T15:35:52.196Z,31.10
2022-08-14T15:39:44.269Z,30.70
2022-08-14T15:43:27.371Z,30.60
2022-08-14T15:47:13.944Z,30.00
2022-08-14T15:51:10.959Z,29.80
2022-08-14T15:54:58.008Z,29.60
2022-08-14T15:58:41.690Z,29.40
2022-08-14T16:02:29.343Z,29.60
2022-08-14T16:06:15.747Z,29.30
2022-08-14T16:10:28.165Z,29.50
2022-08-14T16:14:06.576Z,29.50
2022-08-14T16:17:50.155Z,29.40
2022-08-14T16:21:34.216Z,29.20
2022-08-14T16:25:34.771Z,29.20
2022-08-14T16:29:18.367Z,29.20
2022-08-14T16:33:01.237Z,29.30
2022-08-14T16:36:50.887Z,29.40
2022-08-14T16:40:42.907Z,29.40
2022-08-14T16:44:31.914Z,29.20
2022-08-14T16:48:55.599Z,29.20
2022-08-14T16:52:26.008Z,29.00
2022-08-14T16:56:28.123Z,28.90
2022-08-14T17:00:28.825Z,28.70
2022-08-14T17:04:14.977Z,28.20
2022-08-14T17:08:32.909Z,28.10
2022-08-14T17:12:28.489Z,27.90
2022-08-14T17:16:25.128Z,27.70
2022-08-14T17:20:53.227Z,27.40
2022-08-14T17:28:50.670Z,27.10
2022-08-14T17:32:56.715Z,27.10
2022-08-14T17:36:34.204Z,26.90
2022-08-14T17:40:20.759Z,26.70
2022-08-14T17:44:19.931Z,26.70
2022-08-14T17:48:08.947Z,26.60
2022-08-14T17:52:18.919Z,26.50
2022-08-14T17:56:16.093Z,26.30
2022-08-14T18:00:01.648Z,26.20
2022-08-14T18:03:50.920Z,26.10
2022-08-14T18:07:59.924Z,26.00
2022-08-14T18:11:46.368Z,25.90
2022-08-14T18:15:36.987Z,25.80
2022-08-14T18:19:22.023Z,25.60
2022-08-14T18:23:06.354Z,25.50
2022-08-14T18:27:01.583Z,25.40
2022-08-14T18:30:58.137Z,25.20
2022-08-14T18:34:50.866Z,25.10
2022-08-14T18:38:45.746Z,24.90
2022-08-14T18:42:46.717Z,24.70
2022-08-14T18:47:00.832Z,24.60
2022-08-14T18:50:34.013Z,24.40
2022-08-14T18:54:34.327Z,24.30
2022-08-14T18:58:27.826Z,24.20
2022-08-14T19:02:44.046Z,24.20
2022-08-14T19:06:55.725Z,24.00
2022-08-14T19:10:39.541Z,24.00
2022-08-14T19:14:48.324Z,24.00
2022-08-14T19:18:38.395Z,23.90
2022-08-14T19:22:30.352Z,23.90
2022-08-14T19:26:35.437Z,23.80
2022-08-14T19:30:29.184Z,23.70
2022-08-14T19:34:29.840Z,23.70
2022-08-14T19:38:32.070Z,23.70
2022-08-14T19:42:28.148Z,23.60
2022-08-14T19:46:39.160Z,23.60
2022-08-14T19:50:37.998Z,23.60
2022-08-14T19:54:31.155Z,23.50
2022-08-14T19:58:14.248Z,23.50
2022-08-14T20:01:58.203Z,23.50
2022-08-14T20:05:46.175Z,23.40
2022-08-14T20:11:04.940Z,23.40
2022-08-14T20:13:38.622Z,23.40
2022-08-14T20:17:26.899Z,23.40
2022-08-14T20:21:11.186Z,23.40
2022-08-14T20:24:54.681Z,23.30
2022-08-14T20:28:37.338Z,23.30
2022-08-14T20:32:35.844Z,23.30
2022-08-14T20:36:26.491Z,23.30
2022-08-14T20:40:23.911Z,23.30
2022-08-14T20:44:28.446Z,23.20
2022-08-14T20:48:11.526Z,23.20
2022-08-14T20:52:00.352Z,23.10
2022-08-14T20:55:48.181Z,23.10
2022-08-14T20:59:43.931Z,23.10
2022-08-14T21:03:30.197Z,23.00
2022-08-14T21:07:25.397Z,23.00
2022-08-14T21:11:19.900Z,23.00
2022-08-14T21:15:02.680Z,22.90
2022-08-14T21:18:48.296Z,22.90
2022-08-14T21:22:30.737Z,22.80
2022-08-14T21:26:18.629Z,22.80
2022-08-14T21:30:22.161Z,22.80
2022-08-14T21:34:31.760Z,22.80
2022-08-14T21:38:17.982Z,22.80
2022-08-14T21:42:01.550Z,22.80
2022-08-14T21:45:53.260Z,22.80
2022-08-14T21:49:39.016Z,22.80
2022-08-14T21:53:25.439Z,22.80
2022-08-14T21:57:15.392Z,22.80
2022-08-14T22:00:58.091Z,22.70
2022-08-14T22:04:42.268Z,22.60
2022-08-14T22:08:27.259Z,22.50
2022-08-14T22:12:58.127Z,22.40
2022-08-14T22:17:00.036Z,22.40
2022-08-14T22:20:20.658Z,22.30
2022-08-14T22:24:10.350Z,22.20
2022-08-14T22:27:55.844Z,22.20
2022-08-14T22:31:41.307Z,22.10
2022-08-14T22:52:33.070Z,21.60
2022-08-14T22:56:20.398Z,21.50
2022-08-14T23:00:08.236Z,21.50
2022-08-14T23:03:51.405Z,21.50
2022-08-14T23:08:57.059Z,21.40
2022-08-14T23:11:40.377Z,21.30
2022-08-14T23:15:29.874Z,21.30
2022-08-14T23:19:13.139Z,21.20
2022-08-14T23:22:57.848Z,21.40
2022-08-14T23:26:48.326Z,21.40
2022-08-14T23:30:34.824Z,21.40
2022-08-14T23:34:21.313Z,21.40
2022-08-14T23:38:05.505Z,21.50
2022-08-14T23:41:53.558Z,21.50
2022-08-14T23:45:38.565Z,21.30
2022-08-14T23:49:21.414Z,21.20
2022-08-14T23:53:28.371Z,21.10
2022-08-14T23:57:19.154Z,20.80
